sensor_id;sensor_type;location;lat;lon;timestamp;P1;durP1;ratioP1;P2;durP2;ratioP2
3081;SDS011;1551;51.046;7.010;2023-09-07T00:00:09;5.00;;;3.72;;
3081;SDS011;1551;51.046;7.010;2023-09-07T00:03:01;4.50;;;3.65;;
3081;SDS011;1551;51.046;7.010;2023-09-07T00:05:49;5.10;;;3.70;;
3081;SDS011;1551;51.046;7.010;2023-09-07T00:08:38;4.70;;;3.58;;
3081;SDS011;1551;51.046;7.010;2023-09-07T00:11:28;5.15;;;3.83;;
3081;SDS011;1551;51.046;7.010;2023-09-07T00:14:17;7.10;;;3.72;;
3081;SDS011;1551;51.046;7.010;2023-09-07T00:17:06;4.93;;;3.85;;
3081;SDS011;1551;51.046;7.010;2023-09-07T00:19:55;5.43;;;3.83;;
3081;SDS011;1551;51.046;7.010;2023-09-07T00:22:46;4.85;;;3.67;;
3081;SDS011;1551;51.046;7.010;2023-09-07T00:25:34;6.72;;;3.80;;
3081;SDS011;1551;51.046;7.010;2023-09-07T00:28:23;6.65;;;3.70;;
3081;SDS011;1551;51.046;7.010;2023-09-07T00:31:12;4.30;;;3.42;;
3081;SDS011;1551;51.046;7.010;2023-09-07T00:34:01;6.00;;;3.92;;
3081;SDS011;1551;51.046;7.010;2023-09-07T00:36:50;4.90;;;3.80;;
3081;SDS011;1551;51.046;7.010;2023-09-07T00:39:39;5.90;;;3.90;;
3081;SDS011;1551;51.046;7.010;2023-09-07T00:42:28;5.30;;;4.10;;
3081;SDS011;1551;51.046;7.010;2023-09-07T00:45:17;5.53;;;4.15;;
3081;SDS011;1551;51.046;7.010;2023-09-07T00:48:08;4.82;;;3.83;;
3081;SDS011;1551;51.046;7.010;2023-09-07T00:50:57;6.70;;;4.10;;
3081;SDS011;1551;51.046;7.010;2023-09-07T00:53:46;5.55;;;3.60;;
3081;SDS011;1551;51.046;7.010;2023-09-07T00:56:35;5.60;;;3.92;;
3081;SDS011;1551;51.046;7.010;2023-09-07T00:59:25;4.68;;;3.67;;
3081;SDS011;1551;51.046;7.010;2023-09-07T01:02:14;5.88;;;3.90;;
3081;SDS011;1551;51.046;7.010;2023-09-07T01:05:03;8.40;;;4.00;;
3081;SDS011;1551;51.046;7.010;2023-09-07T01:07:57;6.77;;;3.70;;
3081;SDS011;1551;51.046;7.010;2023-09-07T01:10:51;5.72;;;4.20;;
3081;SDS011;1551;51.046;7.010;2023-09-07T01:13:41;5.60;;;3.50;;
3081;SDS011;1551;51.046;7.010;2023-09-07T01:16:31;7.38;;;3.88;;
3081;SDS011;1551;51.046;7.010;2023-09-07T01:19:25;6.80;;;3.72;;
3081;SDS011;1551;51.046;7.010;2023-09-07T01:22:14;4.70;;;3.40;;
3081;SDS011;1551;51.046;7.010;2023-09-07T01:25:04;4.13;;;3.17;;
3081;SDS011;1551;51.046;7.010;2023-09-07T01:27:55;6.25;;;4.00;;
3081;SDS011;1551;51.046;7.010;2023-09-07T01:30:45;4.95;;;3.85;;
3081;SDS011;1551;51.046;7.010;2023-09-07T01:33:33;4.90;;;3.80;;
3081;SDS011;1551;51.046;7.010;2023-09-07T01:36:23;5.97;;;3.97;;
3081;SDS011;1551;51.046;7.010;2023-09-07T01:39:12;7.85;;;4.00;;
3081;SDS011;1551;51.046;7.010;2023-09-07T01:42:01;5.72;;;4.20;;
3081;SDS011;1551;51.046;7.010;2023-09-07T01:44:50;5.32;;;3.85;;
3081;SDS011;1551;51.046;7.010;2023-09-07T01:47:38;6.82;;;3.72;;
3081;SDS011;1551;51.046;7.010;2023-09-07T01:50:27;6.82;;;4.20;;
3081;SDS011;1551;51.046;7.010;2023-09-07T01:53:16;6.22;;;4.25;;
3081;SDS011;1551;51.046;7.010;2023-09-07T01:56:05;7.07;;;4.70;;
3081;SDS011;1551;51.046;7.010;2023-09-07T01:58:54;4.85;;;3.72;;
3081;SDS011;1551;51.046;7.010;2023-09-07T02:01:43;6.80;;;4.07;;
3081;SDS011;1551;51.046;7.010;2023-09-07T02:04:32;4.90;;;3.90;;
3081;SDS011;1551;51.046;7.010;2023-09-07T02:07:21;5.50;;;3.93;;
3081;SDS011;1551;51.046;7.010;2023-09-07T02:10:10;5.47;;;4.47;;
3081;SDS011;1551;51.046;7.010;2023-09-07T02:12:59;4.78;;;4.10;;
3081;SDS011;1551;51.046;7.010;2023-09-07T02:15:48;5.75;;;4.28;;
3081;SDS011;1551;51.046;7.010;2023-09-07T02:18:37;4.78;;;3.80;;
3081;SDS011;1551;51.046;7.010;2023-09-07T02:21:28;9.02;;;4.60;;
3081;SDS011;1551;51.046;7.010;2023-09-07T02:24:17;6.78;;;3.85;;
3081;SDS011;1551;51.046;7.010;2023-09-07T02:27:06;5.32;;;4.45;;
3081;SDS011;1551;51.046;7.010;2023-09-07T02:29:55;7.07;;;4.15;;
3081;SDS011;1551;51.046;7.010;2023-09-07T02:32:44;5.97;;;3.60;;
3081;SDS011;1551;51.046;7.010;2023-09-07T02:35:36;5.30;;;4.25;;
3081;SDS011;1551;51.046;7.010;2023-09-07T02:38:26;6.78;;;4.15;;
3081;SDS011;1551;51.046;7.010;2023-09-07T02:41:15;6.57;;;4.43;;
3081;SDS011;1551;51.046;7.010;2023-09-07T02:44:05;5.30;;;3.60;;
3081;SDS011;1551;51.046;7.010;2023-09-07T02:46:54;5.28;;;4.00;;
3081;SDS011;1551;51.046;7.010;2023-09-07T02:49:43;5.18;;;4.15;;
3081;SDS011;1551;51.046;7.010;2023-09-07T02:52:32;4.50;;;3.72;;
3081;SDS011;1551;51.046;7.010;2023-09-07T02:55:21;4.68;;;3.72;;
3081;SDS011;1551;51.046;7.010;2023-09-07T02:58:10;6.53;;;4.00;;
3081;SDS011;1551;51.046;7.010;2023-09-07T03:00:59;5.88;;;3.80;;
3081;SDS011;1551;51.046;7.010;2023-09-07T03:03:49;5.53;;;4.05;;
3081;SDS011;1551;51.046;7.010;2023-09-07T03:06:39;8.15;;;4.43;;
3081;SDS011;1551;51.046;7.010;2023-09-07T03:09:28;6.20;;;4.22;;
3081;SDS011;1551;51.046;7.010;2023-09-07T03:12:17;6.32;;;4.07;;
3081;SDS011;1551;51.046;7.010;2023-09-07T03:15:06;5.32;;;4.00;;
3081;SDS011;1551;51.046;7.010;2023-09-07T03:17:56;5.50;;;3.50;;
3081;SDS011;1551;51.046;7.010;2023-09-07T03:20:46;6.05;;;4.50;;
3081;SDS011;1551;51.046;7.010;2023-09-07T03:23:36;6.05;;;4.55;;
3081;SDS011;1551;51.046;7.010;2023-09-07T03:26:26;9.50;;;5.18;;
3081;SDS011;1551;51.046;7.010;2023-09-07T03:29:15;6.13;;;4.38;;
3081;SDS011;1551;51.046;7.010;2023-09-07T03:32:04;6.60;;;3.70;;
3081;SDS011;1551;51.046;7.010;2023-09-07T03:34:55;7.45;;;4.60;;
3081;SDS011;1551;51.046;7.010;2023-09-07T03:37:44;5.60;;;4.20;;
3081;SDS011;1551;51.046;7.010;2023-09-07T03:40:33;5.55;;;4.07;;
3081;SDS011;1551;51.046;7.010;2023-09-07T03:43:22;6.00;;;4.30;;
3081;SDS011;1551;51.046;7.010;2023-09-07T03:46:11;6.18;;;4.47;;
3081;SDS011;1551;51.046;7.010;2023-09-07T03:49:01;5.97;;;4.47;;
3081;SDS011;1551;51.046;7.010;2023-09-07T03:51:50;6.72;;;3.90;;
3081;SDS011;1551;51.046;7.010;2023-09-07T03:54:39;6.32;;;4.47;;
3081;SDS011;1551;51.046;7.010;2023-09-07T03:57:28;5.83;;;3.67;;
3081;SDS011;1551;51.046;7.010;2023-09-07T04:00:17;7.07;;;4.40;;
3081;SDS011;1551;51.046;7.010;2023-09-07T04:03:09;4.70;;;4.10;;
3081;SDS011;1551;51.046;7.010;2023-09-07T04:05:58;6.15;;;4.25;;
3081;SDS011;1551;51.046;7.010;2023-09-07T04:08:47;6.90;;;4.60;;
3081;SDS011;1551;51.046;7.010;2023-09-07T04:11:36;5.70;;;4.10;;
3081;SDS011;1551;51.046;7.010;2023-09-07T04:14:25;5.65;;;4.30;;
3081;SDS011;1551;51.046;7.010;2023-09-07T04:17:14;7.60;;;5.22;;
3081;SDS011;1551;51.046;7.010;2023-09-07T04:20:04;6.93;;;4.40;;
3081;SDS011;1551;51.046;7.010;2023-09-07T04:22:53;5.25;;;4.40;;
3081;SDS011;1551;51.046;7.010;2023-09-07T04:25:42;5.45;;;3.90;;
3081;SDS011;1551;51.046;7.010;2023-09-07T04:28:31;6.18;;;4.15;;
3081;SDS011;1551;51.046;7.010;2023-09-07T04:31:20;6.65;;;4.57;;
3081;SDS011;1551;51.046;7.010;2023-09-07T04:34:09;5.60;;;4.50;;
3081;SDS011;1551;51.046;7.010;2023-09-07T04:36:59;6.65;;;4.40;;
3081;SDS011;1551;51.046;7.010;2023-09-07T04:39:51;6.85;;;4.43;;
3081;SDS011;1551;51.046;7.010;2023-09-07T04:42:42;5.13;;;4.40;;
3081;SDS011;1551;51.046;7.010;2023-09-07T04:45:31;6.28;;;4.63;;
3081;SDS011;1551;51.046;7.010;2023-09-07T04:48:20;4.70;;;4.05;;
3081;SDS011;1551;51.046;7.010;2023-09-07T04:51:09;7.10;;;4.63;;
3081;SDS011;1551;51.046;7.010;2023-09-07T04:54:01;6.70;;;4.43;;
3081;SDS011;1551;51.046;7.010;2023-09-07T04:56:50;6.10;;;4.37;;
3081;SDS011;1551;51.046;7.010;2023-09-07T04:59:40;6.90;;;4.88;;
3081;SDS011;1551;51.046;7.010;2023-09-07T05:02:29;5.07;;;4.20;;
3081;SDS011;1551;51.046;7.010;2023-09-07T05:05:18;7.72;;;4.90;;
3081;SDS011;1551;51.046;7.010;2023-09-07T05:08:07;6.30;;;5.00;;
3081;SDS011;1551;51.046;7.010;2023-09-07T05:10:57;8.95;;;5.03;;
3081;SDS011;1551;51.046;7.010;2023-09-07T05:13:52;7.70;;;4.70;;
3081;SDS011;1551;51.046;7.010;2023-09-07T05:16:44;6.72;;;4.60;;
3081;SDS011;1551;51.046;7.010;2023-09-07T05:19:34;6.35;;;5.00;;
3081;SDS011;1551;51.046;7.010;2023-09-07T05:22:23;6.07;;;4.80;;
3081;SDS011;1551;51.046;7.010;2023-09-07T05:25:15;6.00;;;4.63;;
3081;SDS011;1551;51.046;7.010;2023-09-07T05:28:04;7.40;;;4.90;;
3081;SDS011;1551;51.046;7.010;2023-09-07T05:30:54;5.35;;;3.90;;
3081;SDS011;1551;51.046;7.010;2023-09-07T05:33:45;6.28;;;5.00;;
3081;SDS011;1551;51.046;7.010;2023-09-07T05:36:34;7.80;;;4.85;;
3081;SDS011;1551;51.046;7.010;2023-09-07T05:39:23;7.38;;;5.25;;
3081;SDS011;1551;51.046;7.010;2023-09-07T05:42:12;6.07;;;4.80;;
3081;SDS011;1551;51.046;7.010;2023-09-07T05:45:01;5.60;;;4.60;;
3081;SDS011;1551;51.046;7.010;2023-09-07T05:47:52;5.97;;;4.50;;
3081;SDS011;1551;51.046;7.010;2023-09-07T05:50:41;7.65;;;5.40;;
3081;SDS011;1551;51.046;7.010;2023-09-07T05:53:30;9.48;;;5.15;;
3081;SDS011;1551;51.046;7.010;2023-09-07T05:56:19;6.82;;;4.97;;
3081;SDS011;1551;51.046;7.010;2023-09-07T05:59:08;7.35;;;4.78;;
3081;SDS011;1551;51.046;7.010;2023-09-07T06:01:57;6.90;;;5.20;;
3081;SDS011;1551;51.046;7.010;2023-09-07T06:04:47;9.05;;;4.75;;
3081;SDS011;1551;51.046;7.010;2023-09-07T06:07:37;6.95;;;4.95;;
3081;SDS011;1551;51.046;7.010;2023-09-07T06:10:27;7.05;;;5.30;;
3081;SDS011;1551;51.046;7.010;2023-09-07T06:13:16;7.13;;;5.47;;
3081;SDS011;1551;51.046;7.010;2023-09-07T06:16:05;5.82;;;4.90;;
3081;SDS011;1551;51.046;7.010;2023-09-07T06:18:54;8.57;;;5.30;;
3081;SDS011;1551;51.046;7.010;2023-09-07T06:21:43;6.57;;;5.22;;
3081;SDS011;1551;51.046;7.010;2023-09-07T06:24:32;9.18;;;5.18;;
3081;SDS011;1551;51.046;7.010;2023-09-07T06:27:21;8.10;;;4.78;;
3081;SDS011;1551;51.046;7.010;2023-09-07T06:30:10;6.60;;;5.13;;
3081;SDS011;1551;51.046;7.010;2023-09-07T06:33:01;8.57;;;5.20;;
3081;SDS011;1551;51.046;7.010;2023-09-07T06:35:50;8.73;;;5.40;;
3081;SDS011;1551;51.046;7.010;2023-09-07T06:38:39;7.30;;;5.80;;
3081;SDS011;1551;51.046;7.010;2023-09-07T06:41:28;9.13;;;5.30;;
3081;SDS011;1551;51.046;7.010;2023-09-07T06:44:17;9.18;;;6.10;;
3081;SDS011;1551;51.046;7.010;2023-09-07T06:47:07;7.22;;;5.85;;
3081;SDS011;1551;51.046;7.010;2023-09-07T06:49:56;9.48;;;5.97;;
3081;SDS011;1551;51.046;7.010;2023-09-07T06:52:46;8.77;;;5.82;;
3081;SDS011;1551;51.046;7.010;2023-09-07T06:55:35;12.93;;;5.93;;
3081;SDS011;1551;51.046;7.010;2023-09-07T06:58:24;7.20;;;5.40;;
3081;SDS011;1551;51.046;7.010;2023-09-07T07:01:13;9.50;;;5.45;;
3081;SDS011;1551;51.046;7.010;2023-09-07T07:04:02;6.10;;;5.10;;
3081;SDS011;1551;51.046;7.010;2023-09-07T07:06:51;7.50;;;5.00;;
3081;SDS011;1551;51.046;7.010;2023-09-07T07:09:40;8.55;;;5.00;;
3081;SDS011;1551;51.046;7.010;2023-09-07T07:12:30;8.20;;;5.30;;
3081;SDS011;1551;51.046;7.010;2023-09-07T07:15:23;6.40;;;4.77;;
3081;SDS011;1551;51.046;7.010;2023-09-07T07:18:12;6.90;;;4.80;;
3081;SDS011;1551;51.046;7.010;2023-09-07T07:21:01;6.40;;;4.28;;
3081;SDS011;1551;51.046;7.010;2023-09-07T07:23:50;6.53;;;4.40;;
3081;SDS011;1551;51.046;7.010;2023-09-07T07:26:39;8.90;;;4.30;;
3081;SDS011;1551;51.046;7.010;2023-09-07T07:29:29;8.10;;;4.50;;
3081;SDS011;1551;51.046;7.010;2023-09-07T07:32:18;5.03;;;4.20;;
3081;SDS011;1551;51.046;7.010;2023-09-07T07:35:09;5.50;;;4.30;;
3081;SDS011;1551;51.046;7.010;2023-09-07T07:37:58;7.32;;;4.07;;
3081;SDS011;1551;51.046;7.010;2023-09-07T07:40:47;6.13;;;4.38;;
3081;SDS011;1551;51.046;7.010;2023-09-07T07:43:38;6.17;;;4.07;;
3081;SDS011;1551;51.046;7.010;2023-09-07T07:46:27;6.35;;;4.10;;
3081;SDS011;1551;51.046;7.010;2023-09-07T07:49:16;5.07;;;3.90;;
3081;SDS011;1551;51.046;7.010;2023-09-07T07:52:06;6.82;;;4.38;;
3081;SDS011;1551;51.046;7.010;2023-09-07T07:54:55;5.93;;;4.20;;
3081;SDS011;1551;51.046;7.010;2023-09-07T07:57:44;5.43;;;4.03;;
3081;SDS011;1551;51.046;7.010;2023-09-07T08:00:35;4.60;;;3.80;;
3081;SDS011;1551;51.046;7.010;2023-09-07T08:03:24;5.95;;;4.00;;
3081;SDS011;1551;51.046;7.010;2023-09-07T08:06:14;5.45;;;3.42;;
3081;SDS011;1551;51.046;7.010;2023-09-07T08:09:04;6.88;;;3.90;;
3081;SDS011;1551;51.046;7.010;2023-09-07T08:11:54;4.60;;;3.70;;
3081;SDS011;1551;51.046;7.010;2023-09-07T08:14:44;5.25;;;3.53;;
3081;SDS011;1551;51.046;7.010;2023-09-07T08:17:34;4.13;;;3.30;;
3081;SDS011;1551;51.046;7.010;2023-09-07T08:20:24;4.25;;;3.30;;
3081;SDS011;1551;51.046;7.010;2023-09-07T08:23:14;4.78;;;3.50;;
3081;SDS011;1551;51.046;7.010;2023-09-07T08:26:03;6.80;;;3.50;;
3081;SDS011;1551;51.046;7.010;2023-09-07T08:28:54;6.63;;;3.47;;
3081;SDS011;1551;51.046;7.010;2023-09-07T08:31:43;4.00;;;3.50;;
3081;SDS011;1551;51.046;7.010;2023-09-07T08:34:34;5.72;;;3.53;;
3081;SDS011;1551;51.046;7.010;2023-09-07T08:37:24;4.80;;;3.30;;
3081;SDS011;1551;51.046;7.010;2023-09-07T08:40:14;4.38;;;3.20;;
3081;SDS011;1551;51.046;7.010;2023-09-07T08:43:05;4.85;;;3.40;;
3081;SDS011;1551;51.046;7.010;2023-09-07T08:45:59;4.55;;;3.50;;
3081;SDS011;1551;51.046;7.010;2023-09-07T08:48:54;4.13;;;3.60;;
3081;SDS011;1551;51.046;7.010;2023-09-07T08:51:49;4.68;;;3.30;;
3081;SDS011;1551;51.046;7.010;2023-09-07T08:54:38;6.05;;;3.65;;
3081;SDS011;1551;51.046;7.010;2023-09-07T08:57:29;4.22;;;3.45;;
3081;SDS011;1551;51.046;7.010;2023-09-07T09:00:18;4.63;;;3.40;;
3081;SDS011;1551;51.046;7.010;2023-09-07T09:03:09;7.70;;;3.50;;
3081;SDS011;1551;51.046;7.010;2023-09-07T09:05:59;6.43;;;3.47;;
3081;SDS011;1551;51.046;7.010;2023-09-07T09:08:49;4.00;;;3.10;;
3081;SDS011;1551;51.046;7.010;2023-09-07T09:11:41;4.38;;;3.75;;
3081;SDS011;1551;51.046;7.010;2023-09-07T09:14:30;6.15;;;3.40;;
3081;SDS011;1551;51.046;7.010;2023-09-07T09:17:19;4.70;;;3.30;;
3081;SDS011;1551;51.046;7.010;2023-09-07T09:20:29;6.50;;;3.60;;
3081;SDS011;1551;51.046;7.010;2023-09-07T09:23:18;4.97;;;3.30;;
3081;SDS011;1551;51.046;7.010;2023-09-07T09:26:07;4.50;;;3.40;;
3081;SDS011;1551;51.046;7.010;2023-09-07T09:28:56;3.50;;;3.20;;
3081;SDS011;1551;51.046;7.010;2023-09-07T09:31:45;4.40;;;3.30;;
3081;SDS011;1551;51.046;7.010;2023-09-07T09:34:35;5.20;;;3.80;;
3081;SDS011;1551;51.046;7.010;2023-09-07T09:37:25;4.10;;;3.30;;
3081;SDS011;1551;51.046;7.010;2023-09-07T09:40:14;3.80;;;3.25;;
3081;SDS011;1551;51.046;7.010;2023-09-07T09:43:05;5.20;;;3.40;;
3081;SDS011;1551;51.046;7.010;2023-09-07T09:45:54;4.38;;;3.35;;
3081;SDS011;1551;51.046;7.010;2023-09-07T09:48:43;4.85;;;3.08;;
3081;SDS011;1551;51.046;7.010;2023-09-07T09:51:32;3.47;;;3.10;;
3081;SDS011;1551;51.046;7.010;2023-09-07T09:54:22;5.30;;;3.35;;
3081;SDS011;1551;51.046;7.010;2023-09-07T09:57:12;5.00;;;3.40;;
3081;SDS011;1551;51.046;7.010;2023-09-07T10:00:01;3.10;;;2.80;;
3081;SDS011;1551;51.046;7.010;2023-09-07T10:03:08;4.20;;;3.20;;
3081;SDS011;1551;51.046;7.010;2023-09-07T10:06:09;3.40;;;3.10;;
3081;SDS011;1551;51.046;7.010;2023-09-07T10:09:06;4.10;;;3.20;;
3081;SDS011;1551;51.046;7.010;2023-09-07T10:11:57;3.95;;;3.40;;
3081;SDS011;1551;51.046;7.010;2023-09-07T10:14:48;4.07;;;3.10;;
3081;SDS011;1551;51.046;7.010;2023-09-07T10:17:39;4.50;;;3.40;;
3081;SDS011;1551;51.046;7.010;2023-09-07T10:20:28;4.30;;;3.30;;
3081;SDS011;1551;51.046;7.010;2023-09-07T10:23:18;4.47;;;3.17;;
3081;SDS011;1551;51.046;7.010;2023-09-07T10:26:14;4.50;;;3.45;;
3081;SDS011;1551;51.046;7.010;2023-09-07T10:29:04;4.53;;;3.37;;
3081;SDS011;1551;51.046;7.010;2023-09-07T10:31:54;4.20;;;3.20;;
3081;SDS011;1551;51.046;7.010;2023-09-07T10:34:43;3.50;;;3.00;;
3081;SDS011;1551;51.046;7.010;2023-09-07T10:37:32;3.50;;;3.20;;
3081;SDS011;1551;51.046;7.010;2023-09-07T10:40:22;4.75;;;3.25;;
3081;SDS011;1551;51.046;7.010;2023-09-07T10:43:11;4.80;;;3.40;;
3081;SDS011;1551;51.046;7.010;2023-09-07T10:46:00;4.00;;;3.30;;
3081;SDS011;1551;51.046;7.010;2023-09-07T10:48:50;3.60;;;3.20;;
3081;SDS011;1551;51.046;7.010;2023-09-07T10:51:41;4.07;;;3.10;;
3081;SDS011;1551;51.046;7.010;2023-09-07T10:54:32;6.15;;;3.20;;
3081;SDS011;1551;51.046;7.010;2023-09-07T10:57:21;4.28;;;3.70;;
3081;SDS011;1551;51.046;7.010;2023-09-07T11:00:11;3.30;;;3.00;;
3081;SDS011;1551;51.046;7.010;2023-09-07T11:03:06;4.53;;;3.10;;
3081;SDS011;1551;51.046;7.010;2023-09-07T11:06:02;3.40;;;3.10;;
3081;SDS011;1551;51.046;7.010;2023-09-07T11:08:54;3.20;;;2.90;;
3081;SDS011;1551;51.046;7.010;2023-09-07T11:11:45;3.78;;;3.00;;
3081;SDS011;1551;51.046;7.010;2023-09-07T11:14:35;4.40;;;3.10;;
3081;SDS011;1551;51.046;7.010;2023-09-07T11:17:27;4.38;;;3.25;;
3081;SDS011;1551;51.046;7.010;2023-09-07T11:20:17;5.00;;;2.95;;
3081;SDS011;1551;51.046;7.010;2023-09-07T11:23:10;3.22;;;2.83;;
3081;SDS011;1551;51.046;7.010;2023-09-07T11:25:59;3.13;;;2.50;;
3081;SDS011;1551;51.046;7.010;2023-09-07T11:28:48;3.78;;;2.85;;
3081;SDS011;1551;51.046;7.010;2023-09-07T11:31:37;3.97;;;3.40;;
3081;SDS011;1551;51.046;7.010;2023-09-07T11:34:26;3.70;;;3.28;;
3081;SDS011;1551;51.046;7.010;2023-09-07T11:37:17;3.85;;;3.00;;
3081;SDS011;1551;51.046;7.010;2023-09-07T11:40:06;3.70;;;3.30;;
3081;SDS011;1551;51.046;7.010;2023-09-07T11:43:00;3.90;;;2.80;;
3081;SDS011;1551;51.046;7.010;2023-09-07T11:45:49;3.33;;;3.03;;
3081;SDS011;1551;51.046;7.010;2023-09-07T11:48:38;3.13;;;2.83;;
3081;SDS011;1551;51.046;7.010;2023-09-07T11:51:28;4.30;;;3.20;;
3081;SDS011;1551;51.046;7.010;2023-09-07T11:54:17;4.38;;;3.28;;
3081;SDS011;1551;51.046;7.010;2023-09-07T11:57:06;4.18;;;2.97;;
3081;SDS011;1551;51.046;7.010;2023-09-07T11:59:55;4.10;;;3.13;;
3081;SDS011;1551;51.046;7.010;2023-09-07T12:02:44;4.90;;;3.50;;
3081;SDS011;1551;51.046;7.010;2023-09-07T12:05:33;3.80;;;3.10;;
3081;SDS011;1551;51.046;7.010;2023-09-07T12:08:22;3.80;;;3.40;;
3081;SDS011;1551;51.046;7.010;2023-09-07T12:11:11;4.20;;;3.20;;
3081;SDS011;1551;51.046;7.010;2023-09-07T12:14:00;4.65;;;3.53;;
3081;SDS011;1551;51.046;7.010;2023-09-07T12:16:49;4.82;;;3.30;;
3081;SDS011;1551;51.046;7.010;2023-09-07T12:19:38;3.75;;;3.30;;
3081;SDS011;1551;51.046;7.010;2023-09-07T12:22:27;4.68;;;3.10;;
3081;SDS011;1551;51.046;7.010;2023-09-07T12:25:16;3.30;;;3.00;;
3081;SDS011;1551;51.046;7.010;2023-09-07T12:28:05;3.60;;;3.00;;
3081;SDS011;1551;51.046;7.010;2023-09-07T12:30:54;4.55;;;3.30;;
3081;SDS011;1551;51.046;7.010;2023-09-07T12:33:43;3.70;;;3.30;;
3081;SDS011;1551;51.046;7.010;2023-09-07T12:36:32;3.00;;;2.70;;
3081;SDS011;1551;51.046;7.010;2023-09-07T12:39:21;4.18;;;3.30;;
3081;SDS011;1551;51.046;7.010;2023-09-07T12:42:10;3.63;;;3.33;;
3081;SDS011;1551;51.046;7.010;2023-09-07T12:44:58;4.65;;;3.50;;
3081;SDS011;1551;51.046;7.010;2023-09-07T12:47:47;4.95;;;3.60;;
3081;SDS011;1551;51.046;7.010;2023-09-07T12:50:36;3.75;;;3.00;;
3081;SDS011;1551;51.046;7.010;2023-09-07T12:53:25;3.80;;;3.50;;
3081;SDS011;1551;51.046;7.010;2023-09-07T12:56:15;3.33;;;3.03;;
3081;SDS011;1551;51.046;7.010;2023-09-07T12:59:04;4.07;;;3.30;;
3081;SDS011;1551;51.046;7.010;2023-09-07T13:01:53;3.80;;;3.40;;
3081;SDS011;1551;51.046;7.010;2023-09-07T13:04:44;3.47;;;3.17;;
3081;SDS011;1551;51.046;7.010;2023-09-07T13:07:33;3.65;;;2.88;;
3081;SDS011;1551;51.046;7.010;2023-09-07T13:10:24;4.55;;;3.35;;
3081;SDS011;1551;51.046;7.010;2023-09-07T13:13:13;3.70;;;3.30;;
3081;SDS011;1551;51.046;7.010;2023-09-07T13:16:02;3.40;;;2.80;;
3081;SDS011;1551;51.046;7.010;2023-09-07T13:18:52;4.05;;;3.10;;
3081;SDS011;1551;51.046;7.010;2023-09-07T13:21:41;4.03;;;3.42;;
3081;SDS011;1551;51.046;7.010;2023-09-07T13:24:30;4.47;;;3.10;;
3081;SDS011;1551;51.046;7.010;2023-09-07T13:27:19;5.60;;;3.40;;
3081;SDS011;1551;51.046;7.010;2023-09-07T13:30:08;3.85;;;3.28;;
3081;SDS011;1551;51.046;7.010;2023-09-07T13:32:57;3.65;;;3.25;;
3081;SDS011;1551;51.046;7.010;2023-09-07T13:35:46;4.97;;;3.97;;
3081;SDS011;1551;51.046;7.010;2023-09-07T13:38:35;4.32;;;2.92;;
3081;SDS011;1551;51.046;7.010;2023-09-07T13:41:24;4.40;;;3.30;;
3081;SDS011;1551;51.046;7.010;2023-09-07T13:44:13;4.80;;;3.50;;
3081;SDS011;1551;51.046;7.010;2023-09-07T13:47:03;4.63;;;3.40;;
3081;SDS011;1551;51.046;7.010;2023-09-07T13:49:52;4.50;;;3.17;;
3081;SDS011;1551;51.046;7.010;2023-09-07T13:52:41;3.90;;;3.40;;
3081;SDS011;1551;51.046;7.010;2023-09-07T13:55:30;4.50;;;3.50;;
3081;SDS011;1551;51.046;7.010;2023-09-07T13:58:19;3.95;;;3.15;;
3081;SDS011;1551;51.046;7.010;2023-09-07T14:01:08;3.37;;;3.07;;
3081;SDS011;1551;51.046;7.010;2023-09-07T14:03:58;3.73;;;3.27;;
3081;SDS011;1551;51.046;7.010;2023-09-07T14:06:47;5.57;;;3.13;;
3081;SDS011;1551;51.046;7.010;2023-09-07T14:09:36;3.85;;;2.88;;
3081;SDS011;1551;51.046;7.010;2023-09-07T14:12:25;3.45;;;2.80;;
3081;SDS011;1551;51.046;7.010;2023-09-07T14:15:14;3.90;;;3.50;;
3081;SDS011;1551;51.046;7.010;2023-09-07T14:18:04;3.58;;;3.10;;
3081;SDS011;1551;51.046;7.010;2023-09-07T14:20:53;3.93;;;3.20;;
3081;SDS011;1551;51.046;7.010;2023-09-07T14:23:46;4.25;;;3.20;;
3081;SDS011;1551;51.046;7.010;2023-09-07T14:26:35;3.03;;;2.72;;
3081;SDS011;1551;51.046;7.010;2023-09-07T14:29:24;3.45;;;2.70;;
3081;SDS011;1551;51.046;7.010;2023-09-07T14:32:15;4.45;;;3.15;;
3081;SDS011;1551;51.046;7.010;2023-09-07T14:35:04;3.38;;;2.78;;
3081;SDS011;1551;51.046;7.010;2023-09-07T14:37:53;3.47;;;3.03;;
3081;SDS011;1551;51.046;7.010;2023-09-07T14:40:42;4.68;;;2.95;;
3081;SDS011;1551;51.046;7.010;2023-09-07T14:43:31;4.28;;;3.10;;
3081;SDS011;1551;51.046;7.010;2023-09-07T14:46:20;3.50;;;3.20;;
3081;SDS011;1551;51.046;7.010;2023-09-07T14:49:11;3.65;;;2.95;;
3081;SDS011;1551;51.046;7.010;2023-09-07T14:51:59;4.25;;;3.03;;
3081;SDS011;1551;51.046;7.010;2023-09-07T14:54:48;4.00;;;3.10;;
3081;SDS011;1551;51.046;7.010;2023-09-07T14:57:37;4.22;;;3.20;;
3081;SDS011;1551;51.046;7.010;2023-09-07T15:03:41;4.85;;;3.40;;
3081;SDS011;1551;51.046;7.010;2023-09-07T15:06:30;3.78;;;3.00;;
3081;SDS011;1551;51.046;7.010;2023-09-07T15:09:22;4.10;;;2.72;;
3081;SDS011;1551;51.046;7.010;2023-09-07T15:12:11;4.22;;;3.55;;
3081;SDS011;1551;51.046;7.010;2023-09-07T15:15:00;4.22;;;3.20;;
3081;SDS011;1551;51.046;7.010;2023-09-07T15:17:49;3.35;;;2.83;;
3081;SDS011;1551;51.046;7.010;2023-09-07T15:20:37;3.65;;;2.95;;
3081;SDS011;1551;51.046;7.010;2023-09-07T15:23:27;4.60;;;2.72;;
3081;SDS011;1551;51.046;7.010;2023-09-07T15:26:17;3.55;;;3.08;;
3081;SDS011;1551;51.046;7.010;2023-09-07T15:29:06;3.20;;;2.85;;
3081;SDS011;1551;51.046;7.010;2023-09-07T15:31:54;3.47;;;2.70;;
3081;SDS011;1551;51.046;7.010;2023-09-07T15:34:43;5.35;;;3.10;;
3081;SDS011;1551;51.046;7.010;2023-09-07T15:37:32;5.47;;;3.17;;
3081;SDS011;1551;51.046;7.010;2023-09-07T15:40:21;3.80;;;2.85;;
3081;SDS011;1551;51.046;7.010;2023-09-07T15:43:10;5.00;;;2.80;;
3081;SDS011;1551;51.046;7.010;2023-09-07T15:46:00;4.05;;;2.80;;
3081;SDS011;1551;51.046;7.010;2023-09-07T15:48:49;4.27;;;2.80;;
3081;SDS011;1551;51.046;7.010;2023-09-07T15:51:38;4.82;;;2.90;;
3081;SDS011;1551;51.046;7.010;2023-09-07T15:54:27;3.70;;;3.10;;
3081;SDS011;1551;51.046;7.010;2023-09-07T15:57:16;3.85;;;2.90;;
3081;SDS011;1551;51.046;7.010;2023-09-07T16:00:05;3.50;;;2.95;;
3081;SDS011;1551;51.046;7.010;2023-09-07T16:03:01;4.50;;;3.00;;
3081;SDS011;1551;51.046;7.010;2023-09-07T16:05:50;4.78;;;3.38;;
3081;SDS011;1551;51.046;7.010;2023-09-07T16:08:39;3.95;;;3.05;;
3081;SDS011;1551;51.046;7.010;2023-09-07T16:11:28;7.05;;;2.90;;
3081;SDS011;1551;51.046;7.010;2023-09-07T16:14:17;3.80;;;3.10;;
3081;SDS011;1551;51.046;7.010;2023-09-07T16:17:06;4.95;;;2.95;;
3081;SDS011;1551;51.046;7.010;2023-09-07T16:19:55;3.92;;;3.13;;
3081;SDS011;1551;51.046;7.010;2023-09-07T16:22:45;4.55;;;3.17;;
3081;SDS011;1551;51.046;7.010;2023-09-07T16:25:34;4.20;;;3.17;;
3081;SDS011;1551;51.046;7.010;2023-09-07T16:28:23;6.47;;;3.05;;
3081;SDS011;1551;51.046;7.010;2023-09-07T16:31:12;4.10;;;3.00;;
3081;SDS011;1551;51.046;7.010;2023-09-07T16:34:01;6.93;;;3.40;;
3081;SDS011;1551;51.046;7.010;2023-09-07T16:36:50;3.60;;;2.90;;
3081;SDS011;1551;51.046;7.010;2023-09-07T16:39:39;3.70;;;2.72;;
3081;SDS011;1551;51.046;7.010;2023-09-07T16:42:30;5.95;;;3.03;;
3081;SDS011;1551;51.046;7.010;2023-09-07T16:45:19;3.50;;;2.90;;
3081;SDS011;1551;51.046;7.010;2023-09-07T16:48:08;4.18;;;3.20;;
3081;SDS011;1551;51.046;7.010;2023-09-07T16:50:57;5.32;;;3.20;;
3081;SDS011;1551;51.046;7.010;2023-09-07T16:53:47;4.50;;;3.13;;
3081;SDS011;1551;51.046;7.010;2023-09-07T16:56:36;4.30;;;3.10;;
3081;SDS011;1551;51.046;7.010;2023-09-07T16:59:25;5.45;;;3.88;;
3081;SDS011;1551;51.046;7.010;2023-09-07T17:02:14;7.68;;;3.50;;
3081;SDS011;1551;51.046;7.010;2023-09-07T17:05:03;6.05;;;2.90;;
3081;SDS011;1551;51.046;7.010;2023-09-07T17:07:53;5.05;;;3.15;;
3081;SDS011;1551;51.046;7.010;2023-09-07T17:10:42;8.47;;;3.20;;
3081;SDS011;1551;51.046;7.010;2023-09-07T17:13:31;4.30;;;2.90;;
3081;SDS011;1551;51.046;7.010;2023-09-07T17:16:20;5.80;;;3.22;;
3081;SDS011;1551;51.046;7.010;2023-09-07T17:19:09;5.40;;;3.53;;
3081;SDS011;1551;51.046;7.010;2023-09-07T17:21:58;3.50;;;3.00;;
3081;SDS011;1551;51.046;7.010;2023-09-07T17:24:47;4.50;;;3.63;;
3081;SDS011;1551;51.046;7.010;2023-09-07T17:27:36;3.80;;;3.03;;
3081;SDS011;1551;51.046;7.010;2023-09-07T17:30:25;4.00;;;3.05;;
3081;SDS011;1551;51.046;7.010;2023-09-07T17:33:15;3.75;;;3.30;;
3081;SDS011;1551;51.046;7.010;2023-09-07T17:36:04;4.30;;;3.00;;